Latest Weather Observations for Montague Island

IDN60801

Issued at 7:32 pm EST Tuesday 30 June 2015 (issued every 30 minutes, with the page automatically refreshed every 10 minutes)

About weather observations | Map of weather stations | Latest weather observations for NSW | Other Formats
Station Details ID: 069017 Name: MONTAGUE ISLAND LIGHTHOUSE Lat: -36.25 Lon: 150.23 Height: 52.0 m
Data from the previous 72 hours. | See also: Recent months at Montague Island
Date/Time
EST
Temp
°C
App
Temp
°C
Dew
Point
Rel
Hum
%
Delta-T
°C
Wind Press
QNH
hPa
Press
MSL
hPa
Rain
since 9 am
mm
Dir
 
Spd
km/h
Gust
km/h
Spd
kts
Gust
kts
30/07:30pm 13.9 9.7 8.1 68 2.9 SSW 20 26 11 14 1025.2 1025.2 0.0
30/07:00pm 13.9 10.4 8.7 71 2.6 S 17 22 9 12 1025.1 1025.1 0.0
30/06:30pm 14.0 10.0 9.2 73 2.4 S 20 26 11 14 1024.8 1024.8 0.0
30/06:00pm 13.8 10.1 9.5 75 2.2 SSE 19 22 10 12 1024.7 1024.7 0.0
30/05:30pm 14.1 10.9 9.9 76 2.2 SSE 17 20 9 11 1024.5 1024.5 0.0
30/05:00pm 14.1 11.2 9.7 75 2.3 SSE 15 20 8 11 1024.2 1024.2 0.0
30/04:30pm 14.2 11.0 9.8 75 2.3 SSE 17 22 9 12 1024.0 1024.0 0.0
30/04:00pm 14.3 10.8 10.3 77 2.1 SSE 19 22 10 12 1024.0 1024.0 0.0
30/03:30pm 14.1 11.2 9.5 74 2.4 SSE 15 20 8 11 1023.9 1023.9 0.0
30/03:00pm 14.3 11.7 9.3 72 2.5 SSE 13 17 7 9 1023.9 1023.9 0.0
30/02:30pm 14.2 12.3 9.0 71 2.6 SE 9 13 5 7 1024.0 1024.0 0.0
30/02:00pm 14.2 12.8 9.0 71 2.6 SE 6 11 3 6 1024.0 1024.0 0.0
30/01:30pm 14.2 13.1 8.6 69 2.8 ESE 4 9 2 5 1024.3 1024.3 0.0
30/01:00pm 14.2 12.5 8.4 68 2.9 SE 7 9 4 5 1024.6 1024.6 0.0
30/12:30pm 14.4 12.8 8.1 66 3.2 SSW 6 13 3 7 1025.0 1025.0 0.0
30/12:00pm 14.7 13.6 8.4 66 3.2 W 4 7 2 4 1025.5 1025.5 0.0
30/11:30am 14.8 13.4 9.6 71 2.7 SW 7 11 4 6 1026.0 1026.0 0.0
30/11:00am 14.5 13.1 9.7 73 2.5 WSW 7 13 4 7 1026.6 1026.6 0.0
30/10:30am 14.5 14.1 9.7 73 2.5 W 2 7 1 4 1027.0 1027.0 0.0
30/10:00am 13.7 12.5 9.4 75 2.2 NW 6 7 3 4 1027.2 1027.2 0.0
30/09:30am 13.4 12.2 9.5 77 2.0 NNW 6 7 3 4 1027.2 1027.2 0.0
30/09:00am 12.8 11.3 9.1 78 1.9 NNW 7 11 4 6 1027.3 1027.3 0.0
30/08:30am 13.1 11.4 9.7 80 1.7 WNW 9 15 5 8 1027.4 1027.4 0.0
30/08:00am 12.4 10.5 9.2 81 1.6 NNW 9 11 5 6 1027.2 1027.2 0.0
30/07:30am 11.5 8.5 9.1 85 1.2 WNW 15 19 8 10 1027.4 1027.4 0.0
30/07:00am 11.6 9.3 9.0 84 1.3 WNW 11 13 6 7 1027.5 1027.5 0.0
30/06:30am 12.0 10.3 9.7 86 1.2 WNW 9 13 5 7 1027.3 1027.3 0.0
30/06:00am 12.1 10.9 10.2 88 1.0 NW 7 9 4 5 1027.3 1027.3 0.0
30/05:30am 12.0 10.9 10.1 88 1.0 WSW 6 7 3 4 1027.3 1027.3 0.0
30/05:00am 12.0 10.4 10.2 89 0.9 SW 9 13 5 7 1027.1 1027.1 0.0
30/04:30am 12.1 10.6 10.5 90 0.8 WSW 9 13 5 7 1027.1 1027.1 0.0
30/04:00am 11.9 9.9 10.3 90 0.8 WSW 11 13 6 7 1027.2 1027.2 0.0
30/03:30am 12.1 10.6 10.7 91 0.7 WSW 9 13 5 7 1027.2 1027.2 0.0
30/03:00am 12.4 10.3 11.1 92 0.7 SW 13 15 7 8 1027.4 1027.4 0.0
30/02:30am 12.3 10.1 10.9 91 0.7 SW 13 17 7 9 1027.6 1027.6 0.0
30/02:00am 12.9 10.8 11.3 90 0.8 SW 13 17 7 9 1027.8 1027.8 0.0
30/01:30am 13.2 11.9 11.4 89 1.0 SSW 9 15 5 8 1027.8 1027.8 0.0
30/01:00am 13.1 11.3 10.8 86 1.2 W 11 13 6 7 1028.0 1028.0 0.0
30/12:30am 13.4 12.3 10.6 83 1.5 W 7 11 4 6 1028.2 1028.2 0.0
30/12:00am 14.0 12.9 10.6 80 1.8 W 7 11 4 6 1028.6 1028.6 0.0
 
Date/Time
EST
Temp
°C
App
Temp
°C
Dew
Point
Rel
Hum
%
Delta-T
°C
Wind Press
QNH
hPa
Press
MSL
hPa
Rain
since 9 am
mm
Dir
 
Spd
km/h
Gust
km/h
Spd
kts
Gust
kts
29/11:30pm 14.3 13.3 10.9 80 1.8 WNW 7 11 4 6 1029.0 1029.0 0.0
29/11:00pm 14.5 13.8 11.3 81 1.7 WNW 6 9 3 5 1029.2 1029.2 0.0
29/10:30pm 14.3 13.0 11.3 82 1.6 W 9 11 5 6 1029.3 1029.3 0.0
29/10:00pm 13.9 12.6 11.1 83 1.5 SW 9 11 5 6 1029.7 1029.7 0.0
29/09:30pm 14.4 12.7 11.2 81 1.7 W 11 13 6 7 1029.8 1029.8 0.0
29/09:00pm 14.1 12.6 10.7 80 1.8 W 9 11 5 6 1030.2 1030.2 0.0
29/08:30pm 14.3 12.4 10.5 78 2.0 W 11 13 6 7 1030.3 1030.3 0.0
29/08:00pm 14.6 13.1 10.6 77 2.1 W 9 11 5 6 1030.4 1030.4 0.0
29/07:30pm 15.1 13.8 11.1 77 2.1 WNW 9 13 5 7 1030.5 1030.5 0.0
29/07:00pm 15.6 14.2 11.0 74 2.4 NNE 9 15 5 8 1030.3 1030.3 0.0
29/06:30pm 15.3 13.5 10.9 75 2.3 NNE 11 15 6 8 1030.1 1030.1 0.0
29/06:00pm 15.2 13.8 10.8 75 2.3 NNE 9 15 5 8 1030.0 1030.0 0.0
29/05:30pm 15.3 13.6 11.1 76 2.2 NE 11 17 6 9 1029.8 1029.8 0.0
29/05:00pm 15.1 13.0 11.1 77 2.1 NE 13 20 7 11 1029.5 1029.5 0.0
29/04:30pm 15.0 12.1 11.0 77 2.1 ENE 17 22 9 12 1029.5 1029.5 0.0
29/04:00pm 15.1 11.7 10.7 75 2.3 ENE 19 22 10 12 1029.7 1029.7 0.0
29/03:30pm 15.3 12.1 10.1 71 2.7 ENE 17 22 9 12 1029.8 1029.8 0.0
29/03:00pm 15.4 12.5 9.5 68 3.0 ENE 15 19 8 10 1029.7 1029.7 0.0
29/02:30pm 15.3 12.5 8.5 64 3.5 ENE 13 17 7 9 1029.7 1029.7 0.0
29/02:00pm 15.6 13.2 8.8 64 3.5 ENE 11 15 6 8 1029.7 1029.7 0.0
29/01:30pm 15.4 13.1 7.4 59 4.0 ENE 9 11 5 6 1030.1 1030.1 0.0
29/01:00pm 15.4 13.3 8.4 63 3.5 ENE 9 11 5 6 1030.5 1030.5 0.0
29/12:30pm 15.2 13.5 7.7 61 3.7 E 6 9 3 5 1030.9 1031.0 0.0
29/12:00pm 14.7 13.0 7.5 62 3.5 E 6 9 3 5 1031.4 1031.5 0.0
29/11:30am 16.0 14.9 7.0 55 4.5 WNW 2 6 1 3 1031.9 1032.0 0.0
29/11:00am 15.7 13.9 7.0 56 4.3 WNW 6 9 3 5 1032.5 1032.5 0.0
29/10:30am 15.3 12.9 7.1 58 4.0 W 9 13 5 7 1032.9 1032.9 0.0
29/10:00am 14.9 11.9 7.7 62 3.6 W 13 17 7 9 1033.2 1033.2 0.0
29/09:30am 14.0 10.6 7.5 65 3.2 W 15 19 8 10 1033.2 1033.2 0.0
29/09:00am 13.9 10.1 7.4 65 3.2 W 17 20 9 11 1033.1 1033.1 0.0
29/08:30am 13.2 11.4 9.5 78 1.9 W 9 11 5 6 1033.1 1033.1 0.0
29/08:00am 12.0 9.8 9.4 84 1.3 W 11 13 6 7 1033.0 1033.0 0.0
29/07:30am 11.5 9.2 8.9 84 1.3 WSW 11 13 6 7 1032.9 1032.9 0.0
29/07:00am 11.4 9.0 8.8 84 1.3 WSW 11 15 6 8 1032.7 1032.7 0.0
29/06:30am 11.5 8.5 9.1 85 1.2 SW 15 17 8 9 1032.6 1032.6 0.0
29/06:00am 11.4 8.7 9.1 86 1.1 SW 13 15 7 8 1032.5 1032.5 0.0
29/05:30am 11.5 8.9 9.2 86 1.2 SSW 13 15 7 8 1032.2 1032.3 0.0
29/05:00am 11.9 10.5 8.9 82 1.5 SSW 6 9 3 5 1032.0 1032.1 0.0
29/04:30am 11.7 9.5 8.0 78 1.8 WSW 9 13 5 7 1032.0 1032.1 0.0
29/04:00am 11.4 9.3 8.3 81 1.5 W 9 13 5 7 1031.9 1032.0 0.0
29/03:30am 11.2 8.2 7.7 79 1.7 W 13 19 7 10 1031.9 1032.0 0.0
29/03:00am 11.4 8.2 8.3 81 1.5 W 15 19 8 10 1032.1 1032.2 0.0
29/02:30am 11.9 10.1 9.6 86 1.2 WNW 9 11 5 6 1032.0 1032.1 0.0
29/02:00am 12.4 10.8 10.1 86 1.2 WSW 9 11 5 6 1032.0 1032.1 0.0
29/01:30am 12.6 10.9 10.0 84 1.3 SW 9 11 5 6 1032.1 1032.2 0.0
29/01:00am 12.4 10.7 10.0 85 1.2 WSW 9 11 5 6 1032.2 1032.3 0.0
29/12:30am 12.5 11.0 10.4 87 1.1 WSW 9 13 5 7 1032.2 1032.3 0.0
29/12:00am 12.9 11.0 10.6 86 1.2 WSW 11 15 6 8 1032.5 1032.5 0.0
 
Date/Time
EST
Temp
°C
App
Temp
°C
Dew
Point
Rel
Hum
%
Delta-T
°C
Wind Press
QNH
hPa
Press
MSL
hPa
Rain
since 9 am
mm
Dir
 
Spd
km/h
Gust
km/h
Spd
kts
Gust
kts
28/11:30pm 13.0 10.6 10.2 83 1.4 WSW 13 17 7 9 1032.6 1032.6 0.0
28/11:00pm 12.8 9.6 9.8 82 1.5 W 17 19 9 10 1032.6 1032.6 0.0
28/10:30pm 12.9 10.1 10.1 83 1.4 W 15 19 8 10 1032.6 1032.6 0.0
28/10:00pm 13.0 9.9 10.2 83 1.4 W 17 19 9 10 1032.8 1032.8 0.0
28/09:30pm 13.5 10.8 10.3 81 1.7 W 15 17 8 9 1032.9 1032.9 0.0
28/09:00pm 13.8 11.1 10.4 80 1.8 WNW 15 17 8 9 1032.7 1032.7 0.0
28/08:30pm 13.9 11.2 10.5 80 1.8 WNW 15 17 8 9 1032.6 1032.6 0.0
28/08:00pm 14.0 11.3 10.4 79 1.9 WNW 15 17 8 9 1032.6 1032.6 0.0
28/07:30pm 14.2 12.2 10.2 77 2.1 W 11 15 6 8 1032.3 1032.4 0.0
28/07:00pm 14.7 12.7 10.3 75 2.3 WNW 11 13 6 7 1032.1 1032.2 0.0
28/06:30pm 14.8 12.5 9.0 68 3.0 N 11 13 6 7 1031.8 1031.9 0.0
28/06:00pm 14.7 13.1 8.0 64 3.3 N 6 9 3 5 1031.6 1031.7 0.0
28/05:30pm 14.9 13.4 8.4 65 3.3 NE 6 9 3 5 1031.4 1031.5 0.0
28/05:00pm 14.9 13.2 8.4 65 3.3 NNE 7 11 4 6 1031.2 1031.3 0.0
28/04:30pm 15.0 13.2 8.0 63 3.5 NNE 7 11 4 6 1030.9 1031.0 0.0
28/04:00pm 15.3 12.7 7.8 61 3.7 NNE 11 13 6 7 1030.9 1031.0 0.0
28/03:30pm 15.8 13.6 7.8 59 4.0 NNE 9 13 5 7 1030.7 1030.7 0.0
28/03:00pm 16.6 14.9 8.3 58 4.2 NNW 7 13 4 7 1030.6 1030.6 0.0
28/02:30pm 16.4 14.4 8.6 60 4.0 NNW 9 13 5 7 1030.5 1030.5 0.0
28/02:00pm 16.4 14.8 8.6 60 4.0 NW 7 13 4 7 1030.5 1030.5 0.0
28/01:30pm 16.0 13.5 8.2 60 4.0 WNW 11 17 6 9 1030.9 1031.0 0.0
28/01:00pm 16.2 13.2 7.9 58 4.2 WNW 13 17 7 9 1031.1 1031.2 0.0
28/12:30pm 16.0 11.9 8.0 59 4.0 WNW 19 22 10 12 1031.4 1031.5 0.0
28/12:00pm 16.0 11.9 8.5 61 3.8 WNW 20 26 11 14 1031.6 1031.7 0.0
28/11:30am 15.9 11.5 9.1 64 3.5 WNW 22 28 12 15 1031.9 1032.0 0.0
28/11:00am 14.7 10.1 8.2 65 3.2 W 22 28 12 15 1032.3 1032.4 0.0
28/10:30am 14.7 10.9 9.1 69 2.9 W 19 22 10 12 1032.9 1032.9 0.0
28/10:00am 13.9 10.8 8.7 71 2.6 W 15 20 8 11 1033.0 1033.0 0.0
28/09:30am 13.5 10.5 9.2 75 2.2 W 15 19 8 10 1033.0 1033.0 0.0
28/09:00am 13.9 10.5 9.3 74 2.3 WSW 17 20 9 11 1032.8 1032.8 0.0
28/08:30am 12.8 9.2 9.8 82 1.5 SW 19 24 10 13 1032.6 1032.6 0.0
28/08:00am 12.5 10.8 9.7 83 1.4 WSW 9 13 5 7 1032.3 1032.4 0.0
28/07:30am 12.1 9.4 9.1 82 1.5 SW 13 17 7 9 1031.9 1032.0 0.0
28/07:00am 12.4 10.2 9.2 81 1.6 WSW 11 17 6 9 1031.7 1031.8 0.0
28/06:30am 12.6 9.9 9.1 79 1.8 WSW 13 19 7 10 1031.3 1031.4 0.0
28/06:00am 12.7 9.1 9.7 82 1.5 WSW 19 24 10 13 1031.0 1031.1 0.0
28/05:30am 12.4 9.2 9.8 84 1.3 WSW 17 20 9 11 1030.7 1030.7 0.0
28/05:00am 12.6 8.8 9.8 83 1.4 SW 20 24 11 13 1030.3 1030.3 0.0
28/04:30am 13.1 9.3 9.7 80 1.7 SW 20 24 11 13 1030.2 1030.2 0.0
28/04:00am 12.9 9.7 9.9 82 1.5 SW 17 22 9 12 1030.2 1030.2 0.0
28/03:30am 12.9 10.1 10.1 83 1.4 SW 15 20 8 11 1030.3 1030.3 0.0
28/03:00am 13.1 9.6 10.3 83 1.4 SW 19 22 10 12 1030.4 1030.4 0.0
28/02:30am 13.0 9.6 10.4 84 1.4 SW 19 22 10 12 1030.4 1030.4 0.0
28/02:00am 13.3 9.7 10.7 84 1.4 SW 20 28 11 15 1030.4 1030.4 0.0
28/01:30am 13.7 10.2 10.9 83 1.5 SW 20 26 11 14 1030.3 1030.3 0.0
28/01:00am 14.0 10.5 10.8 81 1.7 SW 20 24 11 13 1030.3 1030.3 0.0
28/12:30am 14.1 11.0 10.3 78 2.0 SW 17 20 9 11 1030.4 1030.4 0.0
28/12:00am 14.2 12.3 10.6 79 1.9 SW 11 13 6 7 1030.5 1030.5 0.0
 
Date/Time
EST
Temp
°C
App
Temp
°C
Dew
Point
Rel
Hum
%
Delta-T
°C
Wind Press
QNH
hPa
Press
MSL
hPa
Rain
since 9 am
mm
Dir
 
Spd
km/h
Gust
km/h
Spd
kts
Gust
kts
27/11:30pm 14.3 12.0 10.5 78 2.0 WSW 13 19 7 10 1030.6 1030.6 0.0
27/11:00pm 14.7 12.7 10.3 75 2.3 SSW 11 15 6 8 1030.5 1030.5 0.0
27/10:30pm 14.6 12.8 9.4 71 2.7 S 9 13 5 7 1030.7 1030.7 0.0
27/10:00pm 14.9 13.4 9.3 69 2.9 SSE 7 11 4 6 1030.5 1030.5 0.0
27/09:30pm 14.5 13.9 8.9 69 2.8 SSW 2 4 1 2 1030.5 1030.5 0.0
27/09:00pm 14.8 13.6 9.4 70 2.8 ESE 6 9 3 5 1030.6 1030.6 0.0
27/08:30pm 14.6 13.3 9.2 70 2.8 NE 6 7 3 4 1030.3 1030.3 0.0
27/08:00pm 14.4 12.9 9.2 71 2.6 NNE 7 9 4 5 1030.4 1030.4 0.0

Other Formats:

Comma delimited format used in spreadsheet applications
http://www.bom.gov.au/fwo/IDN60801/IDN60801.94939.axf

JavaScript Object Notation format (JSON) in row-major order
http://www.bom.gov.au/fwo/IDN60801/IDN60801.94939.json